Time;durP1;ratioP1;P1;durP2;ratioP2;P2;SDS_P1;SDS_P2;PMS_P1;PMS_P2;Temp;Humidity;BMP_temperature;BMP_pressure;BME280_temperature;BME280_humidity;BME280_pressure;Samples;Min_cycle;Max_cycle;Signal;HPM_P1;HPM_P2
2022/04/14 00:00:05;;;;;;;345.95;140.45;;;;;;;12.61;43.03;100099.19;419657;23;1300;-72
2022/04/14 00:00:17;;;;;;;340.27;137.02;;;;;;;12.56;42.75;100101.19;419468;23;944;-72
2022/04/14 00:00:27;;;;;;;333.20;133.23;;;;;;;12.53;42.52;100101.31;414146;23;892;-72
2022/04/14 00:00:38;;;;;;;331.65;131.05;;;;;;;12.53;42.54;100101.31;414161;23;711;-72
2022/04/14 00:00:48;;;;;;;331.70;132.03;;;;;;;12.54;42.86;100100.38;411113;23;767;-72
2022/04/14 00:00:58;;;;;;;332.70;133.45;;;;;;;12.55;42.87;100102.94;410310;23;837;-72
2022/04/14 00:01:11;;;;;;;333.77;136.00;;;;;;;12.55;42.74;100100.31;413609;23;1297;-73
2022/04/14 00:01:22;;;;;;;331.85;135.63;;;;;;;12.57;43.34;100105.47;412058;23;863;-73
2022/04/14 00:01:32;;;;;;;330.10;133.73;;;;;;;12.58;43.77;100100.16;413966;23;785;-73
2022/04/14 00:01:43;;;;;;;333.30;135.50;;;;;;;12.59;44.00;100101.88;414027;23;742;-72
2022/04/14 00:01:54;;;;;;;334.35;135.10;;;;;;;12.59;44.20;100101.03;415752;23;1337;-72
2022/04/14 00:02:04;;;;;;;333.00;133.53;;;;;;;12.61;44.80;100096.56;413753;23;1301;-72
2022/04/14 00:02:14;;;;;;;331.73;132.50;;;;;;;12.62;45.05;100100.91;415436;23;1315;-72
2022/04/14 00:02:25;;;;;;;333.70;133.60;;;;;;;12.59;45.58;100101.88;415804;23;857;-72
2022/04/14 00:02:35;;;;;;;336.87;134.77;;;;;;;12.58;45.91;100108.03;415877;23;1341;-72
2022/04/14 00:02:46;;;;;;;336.10;133.10;;;;;;;12.56;46.15;100096.75;413702;23;1156;-72
2022/04/14 00:02:56;;;;;;;333.80;133.03;;;;;;;12.56;45.95;100095.91;413963;23;783;-72
2022/04/14 00:03:07;;;;;;;333.63;134.93;;;;;;;12.55;46.54;100104.72;415942;23;1283;-72
2022/04/14 00:03:17;;;;;;;335.00;134.05;;;;;;;12.54;46.76;100097.75;417622;23;1213;-72
2022/04/14 00:03:28;;;;;;;334.93;133.30;;;;;;;12.54;47.24;100097.75;413990;23;1163;-72
2022/04/14 00:03:40;;;;;;;335.45;132.50;;;;;;;12.54;47.76;100103.00;412796;23;1246;-72
2022/04/14 00:03:50;;;;;;;335.50;134.20;;;;;;;12.53;47.90;100103.94;414063;23;781;-72
2022/04/14 00:04:00;;;;;;;335.10;134.52;;;;;;;12.52;47.71;100100.44;414060;23;1411;-72
2022/04/14 00:04:11;;;;;;;334.50;134.07;;;;;;;12.53;47.87;100101.31;413979;23;755;-73
2022/04/14 00:04:21;;;;;;;334.40;133.90;;;;;;;12.53;48.47;100101.31;415783;23;1398;-73
2022/04/14 00:04:35;;;;;;;335.33;135.00;;;;;;;12.50;48.58;100098.78;417950;23;849;-72
2022/04/14 00:04:45;;;;;;;335.75;135.07;;;;;;;12.45;48.80;100103.38;419654;23;1193;-72
2022/04/14 00:04:56;;;;;;;339.02;138.50;;;;;;;12.44;48.94;100101.66;417863;23;1229;-72
2022/04/14 00:05:06;;;;;;;340.47;140.93;;;;;;;12.44;49.27;100101.66;417259;23;1066;-71
2022/04/14 00:05:17;;;;;;;340.55;139.93;;;;;;;12.43;49.27;100106.06;413591;23;1405;-72
2022/04/14 00:05:27;;;;;;;337.98;136.70;;;;;;;12.43;49.65;100105.22;415957;23;691;-72
2022/04/14 00:05:38;;;;;;;337.30;136.07;;;;;;;12.38;50.01;100101.91;414099;23;1386;-72
2022/04/14 00:05:48;;;;;;;340.98;138.68;;;;;;;12.40;49.79;100094.84;413172;23;880;-72
2022/04/14 00:05:58;;;;;;;343.77;139.90;;;;;;;12.41;49.88;100104.41;412297;23;896;-73
2022/04/14 00:06:09;;;;;;;347.17;139.33;;;;;;;12.41;49.80;100096.53;417778;23;761;-72
2022/04/14 00:06:19;;;;;;;344.33;138.02;;;;;;;12.41;49.51;100100.03;419857;23;848;-72
2022/04/14 00:06:29;;;;;;;340.17;137.40;;;;;;;12.41;49.75;100101.78;419748;23;722;-72
2022/04/14 00:06:40;;;;;;;338.52;137.65;;;;;;;12.41;49.80;100101.78;419512;23;1299;-72
2022/04/14 00:06:50;;;;;;;336.60;135.43;;;;;;;12.41;50.50;100101.78;417741;23;848;-72
2022/04/14 00:07:02;;;;;;;335.23;133.70;;;;;;;12.41;50.54;100107.03;415764;23;1198;-72
2022/04/14 00:07:12;;;;;;;333.60;132.43;;;;;;;12.39;50.56;100095.75;417709;23;1303;-72
2022/04/14 00:07:23;;;;;;;337.33;134.88;;;;;;;12.38;50.63;100099.28;417884;23;812;-72
2022/04/14 00:07:33;;;;;;;338.70;135.43;;;;;;;12.39;50.46;100099.22;418031;23;789;-72
2022/04/14 00:07:44;;;;;;;339.48;134.43;;;;;;;12.35;50.46;100096.78;415704;23;932;-72
2022/04/14 00:07:54;;;;;;;337.58;133.90;;;;;;;12.29;50.58;100093.50;417797;23;923;-72
2022/04/14 00:08:05;;;;;;;336.20;134.10;;;;;;;12.26;50.54;100104.09;417836;23;769;-73
2022/04/14 00:08:15;;;;;;;335.70;134.90;;;;;;;12.25;50.65;100101.53;417996;23;776;-72
2022/04/14 00:08:26;;;;;;;335.63;134.33;;;;;;;12.24;50.72;100100.69;418026;23;1308;-72
2022/04/14 00:08:36;;;;;;;337.27;135.33;;;;;;;12.24;50.62;100094.59;419611;23;1520;-72
2022/04/14 00:08:46;;;;;;;338.63;135.10;;;;;;;12.21;50.45;100097.34;415465;23;1198;-72
2022/04/14 00:08:57;;;;;;;339.27;134.67;;;;;;;12.22;50.45;100099.91;413955;23;892;-72
2022/04/14 00:09:07;;;;;;;337.33;132.18;;;;;;;12.21;50.49;100099.94;415655;23;876;-72
2022/04/14 00:09:18;;;;;;;338.30;133.30;;;;;;;12.15;51.23;100095.81;415844;23;781;-72
2022/04/14 00:09:28;;;;;;;338.65;135.38;;;;;;;12.14;51.53;100094.09;415867;23;861;-72
2022/04/14 00:09:40;;;;;;;338.67;135.65;;;;;;;12.15;51.33;100101.06;413841;23;1393;-72
2022/04/14 00:09:50;;;;;;;340.08;136.10;;;;;;;12.13;51.36;100097.63;413273;23;1264;-72
2022/04/14 00:10:00;;;;;;;341.10;136.13;;;;;;;12.11;51.39;100096.88;417802;23;860;-73
2022/04/14 00:10:12;;;;;;;342.17;137.73;;;;;;;12.12;51.72;100100.34;415718;23;1259;-72
2022/04/14 00:10:22;;;;;;;341.58;136.52;;;;;;;12.10;51.37;100096.94;413874;23;829;-71
2022/04/14 00:10:34;;;;;;;340.00;135.45;;;;;;;12.04;49.78;100095.41;414112;23;987;-72
2022/04/14 00:10:45;;;;;;;337.73;132.40;;;;;;;12.03;49.38;100096.31;413861;23;1457;-72
2022/04/14 00:10:55;;;;;;;336.90;133.13;;;;;;;12.04;49.70;100103.28;411793;23;1214;-71
2022/04/14 00:11:05;;;;;;;337.05;133.43;;;;;;;12.06;49.43;100096.19;415634;23;1391;-72
2022/04/14 00:11:16;;;;;;;340.17;136.00;;;;;;;12.08;49.68;100094.38;417968;23;1611;-72
2022/04/14 00:11:26;;;;;;;341.25;135.27;;;;;;;12.08;50.03;100099.59;415556;23;1390;-72
2022/04/14 00:11:38;;;;;;;341.23;135.47;;;;;;;12.08;50.33;100094.38;415657;23;1047;-73
2022/04/14 00:11:48;;;;;;;339.52;134.30;;;;;;;12.06;51.41;100095.34;415967;23;1020;-72
2022/04/14 00:11:59;;;;;;;337.53;132.07;;;;;;;11.97;51.47;100100.03;413727;23;860;-71
2022/04/14 00:12:09;;;;;;;338.85;133.02;;;;;;;11.97;51.76;100101.78;415822;23;896;-71
2022/04/14 00:12:20;;;;;;;338.33;132.83;;;;;;;11.97;51.94;100101.78;413571;23;1391;-72
2022/04/14 00:12:30;;;;;;;338.98;133.27;;;;;;;11.96;51.99;100100.94;417985;23;1299;-72
2022/04/14 00:12:41;;;;;;;336.80;132.23;;;;;;;11.94;52.13;100100.13;415558;23;1299;-72
2022/04/14 00:12:51;;;;;;;338.77;132.95;;;;;;;11.93;52.25;100103.69;417927;23;1351;-72
2022/04/14 00:13:02;;;;;;;336.48;131.00;;;;;;;11.90;52.54;100101.16;415858;23;1471;-72
2022/04/14 00:13:12;;;;;;;336.77;130.90;;;;;;;11.91;52.58;100107.28;411722;23;1202;-72
2022/04/14 00:13:23;;;;;;;335.25;131.18;;;;;;;11.91;52.57;100102.03;413882;23;785;-72
2022/04/14 00:13:34;;;;;;;336.03;131.97;;;;;;;11.89;52.87;100104.72;413796;23;1940;-72
2022/04/14 00:13:44;;;;;;;336.98;132.30;;;;;;;11.90;52.82;100103.78;416059;23;793;-72
2022/04/14 00:13:55;;;;;;;336.07;131.07;;;;;;;11.90;52.59;100101.16;415935;23;1015;-72
2022/04/14 00:14:05;;;;;;;338.33;132.15;;;;;;;11.91;52.38;100102.03;415676;23;1351;-72
2022/04/14 00:14:16;;;;;;;338.25;131.73;;;;;;;11.92;52.54;100108.97;415805;23;817;-72
2022/04/14 00:14:26;;;;;;;339.80;132.93;;;;;;;11.91;52.60;100107.28;415858;23;746;-72
2022/04/14 00:14:37;;;;;;;338.17;131.60;;;;;;;11.90;52.35;100105.56;413425;23;893;-72
2022/04/14 00:14:47;;;;;;;338.63;132.03;;;;;;;11.89;52.57;100102.09;413900;23;813;-72
2022/04/14 00:14:58;;;;;;;340.40;133.45;;;;;;;11.87;52.47;100106.53;417735;23;919;-72
2022/04/14 00:15:09;;;;;;;341.70;134.10;;;;;;;11.86;52.66;100102.19;417689;23;1058;-72
2022/04/14 00:15:19;;;;;;;342.52;133.32;;;;;;;11.88;52.62;100107.38;420028;23;867;-71
2022/04/14 00:15:29;;;;;;;340.33;131.55;;;;;;;11.84;52.69;100105.78;417628;23;1303;-72
2022/04/14 00:15:40;;;;;;;339.47;132.10;;;;;;;11.81;52.85;100103.28;417834;23;821;-72
2022/04/14 00:15:50;;;;;;;338.00;133.38;;;;;;;11.79;53.11;100107.72;416279;23;1315;-72
2022/04/14 00:16:01;;;;;;;338.83;133.80;;;;;;;11.80;52.92;100104.19;416623;23;702;-72
2022/04/14 00:16:11;;;;;;;340.30;134.85;;;;;;;11.82;52.78;100107.63;415632;23;1306;-72
2022/04/14 00:16:21;;;;;;;339.93;132.43;;;;;;;11.82;52.53;100107.63;415792;23;1284;-72
2022/04/14 00:16:32;;;;;;;337.55;130.65;;;;;;;11.82;52.60;100107.63;417791;23;1441;-72
2022/04/14 00:16:42;;;;;;;335.87;130.53;;;;;;;11.84;52.58;100111.03;417539;23;1182;-72
2022/04/14 00:16:53;;;;;;;335.52;130.98;;;;;;;11.83;52.05;100109.31;413771;23;1019;-72
2022/04/14 00:17:03;;;;;;;336.83;131.30;;;;;;;11.84;52.38;100111.03;414008;23;743;-72
2022/04/14 00:17:14;;;;;;;336.90;129.77;;;;;;;11.84;52.45;100103.16;413623;23;798;-72
2022/04/14 00:17:24;;;;;;;338.57;131.33;;;;;;;11.85;52.28;100110.13;413735;23;1314;-72
2022/04/14 00:17:35;;;;;;;338.25;131.15;;;;;;;11.84;52.30;100106.66;413791;23;801;-72
2022/04/14 00:17:45;;;;;;;338.02;132.00;;;;;;;11.84;52.28;100105.78;415574;23;1237;-72
2022/04/14 00:17:56;;;;;;;337.10;133.07;;;;;;;11.83;52.35;100107.56;415815;23;910;-71
2022/04/14 00:18:06;;;;;;;334.90;131.60;;;;;;;11.84;52.41;100105.78;417947;23;828;-71
2022/04/14 00:18:17;;;;;;;335.63;132.40;;;;;;;11.78;52.47;100108.63;415725;23;854;-72
2022/04/14 00:18:27;;;;;;;335.37;131.53;;;;;;;11.76;52.76;100102.56;417811;23;1368;-75
2022/04/14 00:18:37;;;;;;;336.42;131.50;;;;;;;11.77;52.55;100117.41;417941;23;1484;-72
2022/04/14 00:18:48;;;;;;;337.33;129.87;;;;;;;11.76;52.49;100107.81;417599;23;845;-72
2022/04/14 00:18:58;;;;;;;339.52;129.82;;;;;;;11.72;52.87;100103.59;420061;23;1252;-73
2022/04/14 00:19:09;;;;;;;341.73;131.30;;;;;;;11.73;52.80;100100.91;417603;23;1287;-71
2022/04/14 00:19:19;;;;;;;339.48;130.00;;;;;;;11.71;53.13;100104.50;417527;23;1221;-71
2022/04/14 00:19:29;;;;;;;339.07;130.57;;;;;;;11.68;53.46;100102.03;417787;23;695;-71
2022/04/14 00:19:40;;;;;;;337.03;128.00;;;;;;;11.65;52.98;100105.63;417738;23;891;-72
2022/04/14 00:19:51;;;;;;;338.23;127.60;;;;;;;11.62;53.11;100106.59;417514;23;796;-71
2022/04/14 00:20:02;;;;;;;338.93;127.40;;;;;;;11.61;53.35;100104.88;418631;23;921;-72
2022/04/14 00:20:13;;;;;;;340.60;130.55;;;;;;;11.60;52.87;100111.03;417888;23;1159;-72
2022/04/14 00:20:23;;;;;;;341.43;132.90;;;;;;;11.60;52.91;100104.94;417863;23;757;-73
2022/04/14 00:20:34;;;;;;;339.65;130.75;;;;;;;11.59;53.45;100103.22;418073;23;845;-71
2022/04/14 00:20:44;;;;;;;339.60;129.10;;;;;;;11.52;53.42;100105.22;417838;23;1232;-72
2022/04/14 00:20:54;;;;;;;340.55;129.93;;;;;;;11.50;53.84;100107.03;415653;23;588;-72
2022/04/14 00:21:05;;;;;;;339.57;129.93;;;;;;;11.52;53.74;100104.34;415283;23;1304;-72
2022/04/14 00:21:15;;;;;;;337.63;130.95;;;;;;;11.54;53.60;100110.41;411907;23;905;-73
2022/04/14 00:21:26;;;;;;;336.27;129.53;;;;;;;11.54;53.54;100102.53;415962;23;840;-72
2022/04/14 00:21:36;;;;;;;338.53;130.80;;;;;;;11.54;53.90;100103.41;415990;23;1435;-72
2022/04/14 00:21:46;;;;;;;338.48;130.25;;;;;;;11.51;53.82;100106.13;415731;23;1226;-72
2022/04/14 00:21:57;;;;;;;336.73;129.13;;;;;;;11.48;54.40;100103.63;415784;23;814;-72
2022/04/14 00:22:07;;;;;;;334.70;129.15;;;;;;;11.49;54.51;100101.84;412982;23;895;-72
2022/04/14 00:22:18;;;;;;;333.03;128.83;;;;;;;11.46;54.87;100105.44;418050;23;848;-72
2022/04/14 00:22:28;;;;;;;333.30;128.88;;;;;;;11.42;55.50;100103.84;419917;23;808;-72
2022/04/14 00:22:39;;;;;;;334.97;130.07;;;;;;;11.43;55.05;100105.53;418036;23;805;-72
2022/04/14 00:22:49;;;;;;;335.98;132.25;;;;;;;11.41;55.41;100106.50;415691;23;1225;-72
2022/04/14 00:23:00;;;;;;;339.25;132.82;;;;;;;11.42;55.64;100109.06;415710;23;1698;-72
2022/04/14 00:23:10;;;;;;;337.37;130.17;;;;;;;11.40;55.51;100110.03;415868;23;837;-72
2022/04/14 00:23:21;;;;;;;336.52;129.88;;;;;;;11.35;55.73;100104.97;417879;23;817;-72
2022/04/14 00:23:31;;;;;;;335.43;130.27;;;;;;;11.36;55.95;100103.19;418003;23;873;-72
2022/04/14 00:23:42;;;;;;;335.02;129.88;;;;;;;11.37;55.90;100108.38;417978;23;826;-71
2022/04/14 00:23:52;;;;;;;335.47;127.70;;;;;;;11.39;55.85;100109.19;417753;23;1518;-72
2022/04/14 00:24:03;;;;;;;337.58;128.73;;;;;;;11.38;55.86;100107.47;415757;23;781;-72
2022/04/14 00:24:13;;;;;;;340.37;129.30;;;;;;;11.37;55.66;100107.53;419678;23;1284;-72
2022/04/14 00:24:23;;;;;;;339.63;130.32;;;;;;;11.36;55.78;100109.28;420122;23;816;-72
2022/04/14 00:24:34;;;;;;;340.27;131.17;;;;;;;11.38;55.76;100104.84;417995;23;869;-72
2022/04/14 00:24:44;;;;;;;337.60;130.98;;;;;;;11.37;55.89;100110.16;419746;23;924;-72
2022/04/14 00:24:55;;;;;;;336.13;129.13;;;;;;;11.37;55.93;100107.53;415635;23;1271;-72
2022/04/14 00:25:06;;;;;;;335.83;128.50;;;;;;;11.38;55.71;100107.47;419700;23;1166;-72
2022/04/14 00:25:16;;;;;;;336.23;129.13;;;;;;;11.39;55.64;100098.69;417347;23;1237;-72
2022/04/14 00:25:27;;;;;;;336.07;129.90;;;;;;;11.40;55.65;100099.56;413870;23;883;-72
2022/04/14 00:25:37;;;;;;;334.73;130.02;;;;;;;11.38;55.48;100107.47;418214;23;1516;-72
2022/04/14 00:25:48;;;;;;;337.33;131.80;;;;;;;11.40;55.78;100108.28;414920;23;797;-72
2022/04/14 00:25:58;;;;;;;337.88;131.98;;;;;;;11.41;55.61;100107.38;412195;23;756;-72
2022/04/14 00:26:08;;;;;;;341.07;133.47;;;;;;;11.41;55.68;100111.75;413678;23;1329;-72
2022/04/14 00:26:19;;;;;;;340.67;131.15;;;;;;;11.41;55.63;100114.38;416033;23;878;-72
2022/04/14 00:26:30;;;;;;;340.37;129.20;;;;;;;11.42;55.93;100103.84;415845;23;762;-72
2022/04/14 00:26:40;;;;;;;337.83;126.28;;;;;;;11.40;55.92;100110.91;415697;23;837;-72
2022/04/14 00:26:50;;;;;;;337.60;126.93;;;;;;;11.40;56.01;100105.66;413914;23;745;-70
2022/04/14 00:27:01;;;;;;;336.88;127.53;;;;;;;11.39;55.94;100109.19;417745;23;1221;-72
2022/04/14 00:27:11;;;;;;;338.03;128.80;;;;;;;11.39;55.99;100109.19;417576;23;809;-71
2022/04/14 00:27:22;;;;;;;336.73;126.57;;;;;;;11.37;55.99;100111.00;418010;23;923;-71
2022/04/14 00:27:32;;;;;;;337.23;126.13;;;;;;;11.37;56.15;100108.38;416105;23;884;-71
2022/04/14 00:27:42;;;;;;;337.00;127.80;;;;;;;11.36;56.24;100111.91;415894;23;726;-72
2022/04/14 00:27:53;;;;;;;340.10;131.30;;;;;;;11.33;56.42;100109.41;415954;23;1432;-72
2022/04/14 00:28:03;;;;;;;340.80;132.30;;;;;;;11.34;56.37;100111.97;415969;23;869;-72
2022/04/14 00:28:14;;;;;;;338.75;130.77;;;;;;;11.33;56.56;100114.66;415715;23;786;-72
2022/04/14 00:28:24;;;;;;;335.08;128.07;;;;;;;11.31;56.90;100112.06;417704;23;1154;-71
2022/04/14 00:28:35;;;;;;;332.13;124.80;;;;;;;11.29;57.13;100113.03;417869;23;797;-71
2022/04/14 00:28:46;;;;;;;330.77;124.35;;;;;;;11.27;56.94;100105.22;417950;23;769;-71
2022/04/14 00:28:56;;;;;;;332.73;126.03;;;;;;;11.27;57.28;100112.25;417920;23;773;-72
2022/04/14 00:29:06;;;;;;;337.27;130.93;;;;;;;11.24;57.53;100115.84;415356;23;1237;-72
2022/04/14 00:29:17;;;;;;;336.67;130.88;;;;;;;11.20;57.43;100114.25;413208;23;980;-72
2022/04/14 00:29:27;;;;;;;336.90;130.07;;;;;;;11.22;57.50;100119.44;415324;23;902;-72
2022/04/14 00:29:38;;;;;;;334.97;128.17;;;;;;;11.19;57.77;100111.69;416033;23;766;-72
2022/04/14 00:29:48;;;;;;;337.05;127.78;;;;;;;11.17;57.86;100109.13;414079;23;1086;-72
2022/04/14 00:29:59;;;;;;;335.60;127.30;;;;;;;11.17;58.19;100113.50;414199;23;864;-72
2022/04/14 00:30:10;;;;;;;337.07;126.90;;;;;;;11.17;58.13;100113.50;415827;23;1289;-72
2022/04/14 00:30:21;;;;;;;337.70;126.95;;;;;;;11.19;58.10;100116.94;417977;23;923;-71
2022/04/14 00:30:31;;;;;;;340.57;128.77;;;;;;;11.20;57.83;100113.41;420004;23;923;-72
2022/04/14 00:30:41;;;;;;;338.27;128.02;;;;;;;11.20;58.03;100110.78;416066;23;1531;-72
2022/04/14 00:30:52;;;;;;;338.40;130.27;;;;;;;11.20;58.04;100113.41;414208;23;1064;-72
2022/04/14 00:31:04;;;;;;;335.13;128.20;;;;;;;11.23;58.19;100118.53;418808;23;1037;-71
2022/04/14 00:31:14;;;;;;;336.30;129.05;;;;;;;11.21;58.21;100117.72;419358;23;1406;-72
2022/04/14 00:31:25;;;;;;;336.07;127.10;;;;;;;11.21;58.19;100115.09;412028;23;908;-72
2022/04/14 00:31:35;;;;;;;340.30;128.53;;;;;;;11.21;58.19;100115.09;415792;23;947;-72
2022/04/14 00:31:45;;;;;;;339.33;128.32;;;;;;;11.23;58.20;100118.53;413857;23;872;-72
2022/04/14 00:31:56;;;;;;;339.40;130.47;;;;;;;11.23;58.29;100118.53;414153;23;793;-72
2022/04/14 00:32:06;;;;;;;337.17;129.60;;;;;;;11.26;58.14;100118.41;415891;23;1304;-72
2022/04/14 00:32:17;;;;;;;339.77;129.30;;;;;;;11.26;58.24;100113.19;415584;23;777;-72
2022/04/14 00:32:27;;;;;;;339.15;128.05;;;;;;;11.27;58.12;100114.84;414085;23;878;-72
2022/04/14 00:32:38;;;;;;;338.70;127.23;;;;;;;11.26;58.01;100113.19;411931;23;1302;-73
2022/04/14 00:32:48;;;;;;;335.58;124.25;;;;;;;11.26;58.55;100119.25;412013;23;868;-73
2022/04/14 00:32:59;;;;;;;334.50;124.13;;;;;;;11.27;58.22;100109.63;412075;23;738;-72
2022/04/14 00:33:09;;;;;;;336.35;126.20;;;;;;;11.26;58.17;100121.03;415887;23;908;-72
2022/04/14 00:33:19;;;;;;;335.83;127.43;;;;;;;11.23;58.64;100116.75;415596;23;852;-72
2022/04/14 00:33:33;;;;;;;336.65;127.68;;;;;;;11.21;58.65;100120.34;415767;23;809;-73
2022/04/14 00:33:43;;;;;;;335.05;126.75;;;;;;;11.19;58.71;100117.78;413705;23;1443;-73
2022/04/14 00:33:53;;;;;;;336.45;127.93;;;;;;;11.19;58.54;100117.78;410550;23;1161;-73
2022/04/14 00:34:04;;;;;;;336.57;126.80;;;;;;;11.19;58.23;100116.94;411519;23;1300;-73
2022/04/14 00:34:14;;;;;;;336.17;128.20;;;;;;;11.20;58.75;100126.50;413978;23;1498;-73
2022/04/14 00:34:25;;;;;;;335.40;126.30;;;;;;;11.18;58.61;100116.06;413729;23;1295;-74
2022/04/14 00:34:35;;;;;;;333.60;125.27;;;;;;;11.16;58.75;100122.28;414112;23;801;-73
2022/04/14 00:34:45;;;;;;;332.97;123.53;;;;;;;11.15;58.79;100110.94;413641;23;1279;-73
2022/04/14 00:34:56;;;;;;;334.30;124.90;;;;;;;11.14;58.84;100116.22;414151;23;845;-72
2022/04/14 00:35:07;;;;;;;335.13;125.43;;;;;;;11.15;58.96;100115.31;413668;23;1270;-72
2022/04/14 00:35:17;;;;;;;336.50;125.40;;;;;;;11.15;59.02;100125.81;415813;23;845;-72
2022/04/14 00:35:28;;;;;;;337.40;125.03;;;;;;;11.16;59.29;100122.28;417659;23;903;-73
2022/04/14 00:35:38;;;;;;;338.20;126.72;;;;;;;11.16;59.29;100117.03;418055;23;758;-72
2022/04/14 00:35:48;;;;;;;338.00;129.17;;;;;;;11.14;59.53;100122.31;415208;23;769;-73
2022/04/14 00:35:59;;;;;;;339.70;132.48;;;;;;;11.12;59.30;100118.03;416332;23;1538;-72
2022/04/14 00:36:09;;;;;;;340.73;133.17;;;;;;;11.12;59.14;100120.66;415663;23;1000;-73
2022/04/14 00:36:20;;;;;;;339.40;130.27;;;;;;;11.06;59.46;100116.50;415850;23;1289;-72
2022/04/14 00:36:33;;;;;;;337.57;127.63;;;;;;;11.04;59.44;100115.69;417871;23;777;-72
2022/04/14 00:36:43;;;;;;;338.80;127.07;;;;;;;11.07;59.61;100123.44;415612;23;989;-72
2022/04/14 00:36:53;;;;;;;339.73;128.35;;;;;;;11.05;59.47;100122.63;416027;23;816;-72
2022/04/14 00:37:04;;;;;;;337.53;128.47;;;;;;;11.03;59.50;100120.97;415828;23;1383;-72
2022/04/14 00:37:17;;;;;;;335.90;127.60;;;;;;;10.99;59.59;100115.00;413859;23;766;-72
2022/04/14 00:37:27;;;;;;;335.30;127.30;;;;;;;10.99;59.14;100115.84;412118;23;872;-72
2022/04/14 00:37:39;;;;;;;334.63;126.83;;;;;;;10.99;59.29;100117.59;417772;23;1163;-72
2022/04/14 00:37:49;;;;;;;336.25;125.95;;;;;;;10.97;59.27;100122.91;415884;23;832;-71
2022/04/14 00:38:00;;;;;;;337.88;127.32;;;;;;;10.92;58.74;100119.56;415816;23;1350;-71
2022/04/14 00:38:10;;;;;;;339.23;128.05;;;;;;;10.89;58.91;100119.69;415997;23;789;-72
2022/04/14 00:38:20;;;;;;;338.83;129.00;;;;;;;10.88;58.84;100114.50;418060;23;1042;-72
2022/04/14 00:38:31;;;;;;;336.67;126.57;;;;;;;10.89;59.05;100119.69;415757;23;771;-72
2022/04/14 00:38:41;;;;;;;337.08;126.10;;;;;;;10.88;58.76;100120.59;419736;23;761;-72
2022/04/14 00:38:52;;;;;;;337.30;126.83;;;;;;;10.89;59.08;100117.06;417697;23;765;-72
2022/04/14 00:39:02;;;;;;;337.63;126.78;;;;;;;10.89;58.97;100114.44;419668;23;1291;-71
2022/04/14 00:39:12;;;;;;;335.53;125.97;;;;;;;10.95;58.90;100118.63;417653;23;856;-72
2022/04/14 00:39:23;;;;;;;336.50;125.55;;;;;;;10.94;58.97;100123.00;417678;23;1281;-72
2022/04/14 00:39:33;;;;;;;337.93;127.20;;;;;;;10.96;58.58;100121.19;417534;23;1316;-72
2022/04/14 00:39:44;;;;;;;338.97;128.23;;;;;;;10.95;58.78;100119.47;415830;23;1097;-72
2022/04/14 00:39:54;;;;;;;338.57;128.37;;;;;;;10.96;58.78;100126.44;415787;23;750;-72
2022/04/14 00:40:05;;;;;;;337.13;125.60;;;;;;;10.94;58.88;100119.53;418526;23;1128;-72
2022/04/14 00:40:16;;;;;;;335.23;125.00;;;;;;;10.94;58.83;100125.63;417766;23;817;-72
2022/04/14 00:40:26;;;;;;;335.83;124.83;;;;;;;10.96;58.89;100121.19;418329;23;1022;-71
2022/04/14 00:40:36;;;;;;;339.13;126.45;;;;;;;10.98;58.78;100131.59;414033;23;1365;-72
2022/04/14 00:40:49;;;;;;;340.10;125.30;;;;;;;10.94;58.39;100124.75;415509;23;906;-72
2022/04/14 00:40:59;;;;;;;338.02;126.55;;;;;;;10.95;58.76;100124.72;416321;23;1289;-72
2022/04/14 00:41:10;;;;;;;336.27;126.83;;;;;;;10.94;58.72;100128.25;417785;23;789;-72
2022/04/14 00:41:20;;;;;;;335.38;127.30;;;;;;;10.92;58.40;100118.72;419710;23;860;-72
2022/04/14 00:41:31;;;;;;;334.17;124.50;;;;;;;10.90;58.67;100121.41;415978;23;829;-72
2022/04/14 00:41:41;;;;;;;336.83;125.90;;;;;;;10.89;58.63;100119.69;415686;23;844;-72
2022/04/14 00:41:51;;;;;;;338.30;126.83;;;;;;;10.90;58.63;100123.16;414191;23;873;-72
2022/04/14 00:42:11;;;;;;;338.07;126.43;;;;;;;10.91;58.23;100125.72;417794;23;1297;-72
2022/04/14 00:42:21;;;;;;;331.40;119.45;;;;;;;10.92;58.42;100124.81;415634;23;909;-72
2022/04/14 00:42:31;;;;;;;331.30;119.37;;;;;;;10.93;58.13;100123.91;415658;23;786;-72
2022/04/14 00:42:42;;;;;;;330.75;120.68;;;;;;;10.92;58.03;100119.56;416301;23;1293;-72
2022/04/14 00:42:52;;;;;;;331.73;121.17;;;;;;;10.90;57.72;100116.16;415773;23;745;-72
2022/04/14 00:43:03;;;;;;;331.33;120.82;;;;;;;10.91;57.79;100122.25;416048;23;992;-72
2022/04/14 00:43:13;;;;;;;332.03;121.97;;;;;;;10.89;57.68;100118.81;413716;23;1347;-72
2022/04/14 00:43:30;;;;;;;330.00;119.67;;;;;;;10.84;57.28;100121.59;413955;23;826;-69
2022/04/14 00:43:43;;;;;;;330.25;118.32;;;;;;;10.83;57.84;100124.31;417958;23;900;-71
2022/04/14 00:43:54;;;;;;;331.58;121.85;;;;;;;10.83;57.44;100119.06;420056;23;813;-72
2022/04/14 00:44:04;;;;;;;332.88;123.70;;;;;;;10.84;57.54;100120.75;419869;23;584;-72
2022/04/14 00:44:15;;;;;;;335.25;124.97;;;;;;;10.85;57.30;100122.44;415916;23;776;-72
2022/04/14 00:44:25;;;;;;;336.90;125.65;;;;;;;10.83;57.36;100119.06;413878;23;840;-72
2022/04/14 00:44:36;;;;;;;338.93;127.63;;;;;;;10.80;57.61;100120.03;413717;23;1275;-72
2022/04/14 00:44:46;;;;;;;334.38;124.32;;;;;;;10.80;57.59;100119.16;417722;23;925;-72
2022/04/14 00:44:56;;;;;;;333.60;124.23;;;;;;;10.83;57.61;100124.31;420190;23;781;-72
2022/04/14 00:45:07;;;;;;;332.33;122.43;;;;;;;10.81;57.62;100124.34;419665;23;1085;-72
2022/04/14 00:45:18;;;;;;;334.03;125.50;;;;;;;10.81;57.76;100120.88;417768;23;873;-72
2022/04/14 00:45:28;;;;;;;334.70;124.43;;;;;;;10.81;57.53;100116.50;416088;23;810;-71
2022/04/14 00:45:39;;;;;;;334.83;123.78;;;;;;;10.80;57.48;100122.63;417631;23;1220;-71
2022/04/14 00:45:49;;;;;;;334.07;122.17;;;;;;;10.81;57.11;100111.25;414687;23;1330;-72
2022/04/14 00:46:00;;;;;;;334.77;125.03;;;;;;;10.84;57.02;100129.44;416607;23;706;-72
2022/04/14 00:46:10;;;;;;;333.83;124.88;;;;;;;10.86;56.72;100113.69;422005;23;838;-72
2022/04/14 00:46:21;;;;;;;333.98;124.68;;;;;;;10.85;56.86;100118.06;419829;23;1731;-72
2022/04/14 00:46:31;;;;;;;334.57;124.07;;;;;;;10.88;56.36;100120.59;417629;23;777;-72
2022/04/14 00:46:42;;;;;;;335.25;124.45;;;;;;;10.89;56.42;100117.06;417651;23;858;-72
2022/04/14 00:46:52;;;;;;;336.40;126.00;;;;;;;10.87;56.41;100124.13;415592;23;868;-72
2022/04/14 00:47:03;;;;;;;336.17;125.38;;;;;;;10.89;56.29;100121.44;415836;23;1312;-71
2022/04/14 00:47:13;;;;;;;334.98;123.70;;;;;;;10.90;56.59;100121.41;415590;23;924;-71
2022/04/14 00:47:24;;;;;;;334.20;123.83;;;;;;;10.92;56.17;100123.97;413593;23;1083;-72
2022/04/14 00:47:34;;;;;;;332.88;122.13;;;;;;;10.90;56.61;100124.00;414019;23;823;-72
2022/04/14 00:47:45;;;;;;;333.90;122.70;;;;;;;10.93;56.30;100125.66;415805;23;1110;-72
2022/04/14 00:47:55;;;;;;;334.08;122.80;;;;;;;10.95;56.46;100123.84;415263;23;1102;-73
2022/04/14 00:48:06;;;;;;;335.90;125.90;;;;;;;10.94;56.38;100125.63;416171;23;1453;-73
2022/04/14 00:48:17;;;;;;;336.95;125.88;;;;;;;10.93;56.35;100123.91;417696;23;844;-72
2022/04/14 00:48:28;;;;;;;333.83;122.97;;;;;;;10.94;56.30;100123.00;415684;23;1599;-73
2022/04/14 00:48:38;;;;;;;331.48;120.25;;;;;;;10.89;56.60;100124.91;415954;23;924;-73